sensor_id;sensor_type;location;lat;lon;timestamp;P1;durP1;ratioP1;P2;durP2;ratioP2
14939;SDS011;11825;51.898;8.202;2023-08-06T00:02:53;5.07;;;4.57;;
14939;SDS011;11825;51.898;8.202;2023-08-06T00:07:58;6.20;;;5.07;;
14939;SDS011;11825;51.898;8.202;2023-08-06T00:13:11;4.57;;;4.17;;
14939;SDS011;11825;51.898;8.202;2023-08-06T00:18:13;5.13;;;4.13;;
14939;SDS011;11825;51.898;8.202;2023-08-06T00:23:15;7.77;;;4.63;;
14939;SDS011;11825;51.898;8.202;2023-08-06T00:28:17;5.73;;;4.83;;
14939;SDS011;11825;51.898;8.202;2023-08-06T00:33:18;4.73;;;4.17;;
14939;SDS011;11825;51.898;8.202;2023-08-06T00:38:20;4.40;;;4.00;;
14939;SDS011;11825;51.898;8.202;2023-08-06T00:43:22;4.37;;;3.90;;
14939;SDS011;11825;51.898;8.202;2023-08-06T00:48:25;4.13;;;3.83;;
14939;SDS011;11825;51.898;8.202;2023-08-06T00:53:27;6.33;;;3.87;;
14939;SDS011;11825;51.898;8.202;2023-08-06T00:58:29;5.93;;;3.60;;
14939;SDS011;11825;51.898;8.202;2023-08-06T01:03:31;4.87;;;4.10;;
14939;SDS011;11825;51.898;8.202;2023-08-06T01:08:40;9.67;;;5.13;;
14939;SDS011;11825;51.898;8.202;2023-08-06T01:13:58;4.57;;;4.07;;
14939;SDS011;11825;51.898;8.202;2023-08-06T01:19:03;5.93;;;4.83;;
14939;SDS011;11825;51.898;8.202;2023-08-06T01:24:05;7.03;;;4.37;;
14939;SDS011;11825;51.898;8.202;2023-08-06T01:34:25;5.63;;;4.13;;
14939;SDS011;11825;51.898;8.202;2023-08-06T01:39:35;4.97;;;4.57;;
14939;SDS011;11825;51.898;8.202;2023-08-06T01:44:39;5.60;;;5.10;;
14939;SDS011;11825;51.898;8.202;2023-08-06T01:49:44;9.07;;;5.73;;
14939;SDS011;11825;51.898;8.202;2023-08-06T01:54:49;5.73;;;5.23;;
14939;SDS011;11825;51.898;8.202;2023-08-06T01:59:50;5.90;;;5.30;;
14939;SDS011;11825;51.898;8.202;2023-08-06T02:04:55;8.10;;;4.70;;
14939;SDS011;11825;51.898;8.202;2023-08-06T02:09:59;5.13;;;4.73;;
14939;SDS011;11825;51.898;8.202;2023-08-06T02:15:01;6.40;;;5.80;;
14939;SDS011;11825;51.898;8.202;2023-08-06T02:20:06;6.00;;;5.40;;
14939;SDS011;11825;51.898;8.202;2023-08-06T02:25:08;6.73;;;6.13;;
14939;SDS011;11825;51.898;8.202;2023-08-06T02:30:10;4.77;;;4.33;;
14939;SDS011;11825;51.898;8.202;2023-08-06T02:35:14;6.20;;;5.60;;
14939;SDS011;11825;51.898;8.202;2023-08-06T02:40:16;6.83;;;6.03;;
14939;SDS011;11825;51.898;8.202;2023-08-06T02:45:24;6.80;;;6.20;;
14939;SDS011;11825;51.898;8.202;2023-08-06T02:50:25;8.17;;;6.10;;
14939;SDS011;11825;51.898;8.202;2023-08-06T02:55:30;7.63;;;5.37;;
14939;SDS011;11825;51.898;8.202;2023-08-06T03:00:31;6.17;;;5.40;;
14939;SDS011;11825;51.898;8.202;2023-08-06T03:05:33;5.30;;;4.87;;
14939;SDS011;11825;51.898;8.202;2023-08-06T03:10:42;6.30;;;4.83;;
14939;SDS011;11825;51.898;8.202;2023-08-06T03:15:57;8.23;;;5.60;;
14939;SDS011;11825;51.898;8.202;2023-08-06T03:21:03;6.03;;;5.53;;
14939;SDS011;11825;51.898;8.202;2023-08-06T03:26:05;5.87;;;5.37;;
14939;SDS011;11825;51.898;8.202;2023-08-06T03:31:07;5.40;;;5.00;;
14939;SDS011;11825;51.898;8.202;2023-08-06T03:36:12;6.87;;;5.80;;
14939;SDS011;11825;51.898;8.202;2023-08-06T03:41:16;7.67;;;5.90;;
14939;SDS011;11825;51.898;8.202;2023-08-06T03:46:21;5.87;;;5.37;;
14939;SDS011;11825;51.898;8.202;2023-08-06T03:51:23;7.37;;;5.03;;
14939;SDS011;11825;51.898;8.202;2023-08-06T03:56:24;5.23;;;4.73;;
14939;SDS011;11825;51.898;8.202;2023-08-06T04:01:29;5.87;;;4.67;;
14939;SDS011;11825;51.898;8.202;2023-08-06T04:06:34;4.83;;;4.43;;
14939;SDS011;11825;51.898;8.202;2023-08-06T04:11:43;7.73;;;4.87;;
14939;SDS011;11825;51.898;8.202;2023-08-06T04:16:44;8.07;;;5.73;;
14939;SDS011;11825;51.898;8.202;2023-08-06T04:21:46;7.13;;;5.70;;
14939;SDS011;11825;51.898;8.202;2023-08-06T04:26:48;9.23;;;6.03;;
14939;SDS011;11825;51.898;8.202;2023-08-06T04:31:52;5.40;;;4.90;;
14939;SDS011;11825;51.898;8.202;2023-08-06T04:36:54;5.70;;;5.17;;
14939;SDS011;11825;51.898;8.202;2023-08-06T04:41:58;6.13;;;4.97;;
14939;SDS011;11825;51.898;8.202;2023-08-06T04:47:02;5.63;;;5.13;;
14939;SDS011;11825;51.898;8.202;2023-08-06T04:52:06;5.70;;;5.20;;
14939;SDS011;11825;51.898;8.202;2023-08-06T04:57:11;5.47;;;4.93;;
14939;SDS011;11825;51.898;8.202;2023-08-06T05:02:13;8.20;;;6.47;;
14939;SDS011;11825;51.898;8.202;2023-08-06T05:07:14;9.57;;;5.60;;
14939;SDS011;11825;51.898;8.202;2023-08-06T05:12:19;5.90;;;5.40;;
14939;SDS011;11825;51.898;8.202;2023-08-06T05:17:27;6.67;;;5.43;;
14939;SDS011;11825;51.898;8.202;2023-08-06T05:22:29;6.67;;;5.83;;
14939;SDS011;11825;51.898;8.202;2023-08-06T05:27:32;6.83;;;6.17;;
14939;SDS011;11825;51.898;8.202;2023-08-06T05:32:38;7.97;;;6.37;;
14939;SDS011;11825;51.898;8.202;2023-08-06T05:37:40;6.63;;;6.07;;
14939;SDS011;11825;51.898;8.202;2023-08-06T05:42:44;8.17;;;5.40;;
14939;SDS011;11825;51.898;8.202;2023-08-06T05:47:48;8.07;;;5.53;;
14939;SDS011;11825;51.898;8.202;2023-08-06T05:52:50;7.73;;;5.87;;
14939;SDS011;11825;51.898;8.202;2023-08-06T05:57:54;8.07;;;6.67;;
14939;SDS011;11825;51.898;8.202;2023-08-06T06:02:58;10.03;;;6.97;;
14939;SDS011;11825;51.898;8.202;2023-08-06T06:08:00;7.47;;;6.70;;
14939;SDS011;11825;51.898;8.202;2023-08-06T06:13:06;6.37;;;5.87;;
14939;SDS011;11825;51.898;8.202;2023-08-06T06:18:10;7.00;;;6.30;;
14939;SDS011;11825;51.898;8.202;2023-08-06T06:23:15;6.20;;;5.33;;
14939;SDS011;11825;51.898;8.202;2023-08-06T06:28:21;5.63;;;5.13;;
14939;SDS011;11825;51.898;8.202;2023-08-06T06:33:25;6.23;;;5.63;;
14939;SDS011;11825;51.898;8.202;2023-08-06T06:38:31;6.70;;;6.20;;
14939;SDS011;11825;51.898;8.202;2023-08-06T06:43:43;6.23;;;5.50;;
14939;SDS011;11825;51.898;8.202;2023-08-06T06:48:50;5.90;;;5.03;;
14939;SDS011;11825;51.898;8.202;2023-08-06T06:53:54;5.83;;;5.43;;
14939;SDS011;11825;51.898;8.202;2023-08-06T06:58:58;6.13;;;4.97;;
14939;SDS011;11825;51.898;8.202;2023-08-06T07:04:11;4.70;;;4.30;;
14939;SDS011;11825;51.898;8.202;2023-08-06T07:09:21;5.50;;;4.90;;
14939;SDS011;11825;51.898;8.202;2023-08-06T07:14:34;5.03;;;4.53;;
14939;SDS011;11825;51.898;8.202;2023-08-06T07:19:41;5.77;;;4.37;;
14939;SDS011;11825;51.898;8.202;2023-08-06T07:24:43;4.73;;;4.30;;
14939;SDS011;11825;51.898;8.202;2023-08-06T07:29:51;4.43;;;4.03;;
14939;SDS011;11825;51.898;8.202;2023-08-06T07:34:54;6.50;;;4.03;;
14939;SDS011;11825;51.898;8.202;2023-08-06T07:40:00;4.30;;;3.90;;
14939;SDS011;11825;51.898;8.202;2023-08-06T07:45:08;3.17;;;2.87;;
14939;SDS011;11825;51.898;8.202;2023-08-06T07:50:10;4.67;;;4.27;;
14939;SDS011;11825;51.898;8.202;2023-08-06T07:55:23;5.83;;;3.47;;
14939;SDS011;11825;51.898;8.202;2023-08-06T08:00:28;3.10;;;2.80;;
14939;SDS011;11825;51.898;8.202;2023-08-06T08:05:35;3.67;;;2.33;;
14939;SDS011;11825;51.898;8.202;2023-08-06T08:10:49;2.80;;;2.07;;
14939;SDS011;11825;51.898;8.202;2023-08-06T08:16:08;2.73;;;2.50;;
14939;SDS011;11825;51.898;8.202;2023-08-06T08:21:11;2.63;;;2.20;;
14939;SDS011;11825;51.898;8.202;2023-08-06T08:26:14;3.27;;;2.50;;
14939;SDS011;11825;51.898;8.202;2023-08-06T08:31:20;2.40;;;2.20;;
14939;SDS011;11825;51.898;8.202;2023-08-06T08:36:27;2.83;;;2.47;;
14939;SDS011;11825;51.898;8.202;2023-08-06T08:41:41;3.63;;;2.50;;
14939;SDS011;11825;51.898;8.202;2023-08-06T08:46:45;2.57;;;1.90;;
14939;SDS011;11825;51.898;8.202;2023-08-06T08:51:58;2.33;;;2.23;;
14939;SDS011;11825;51.898;8.202;2023-08-06T08:57:04;2.37;;;2.27;;
14939;SDS011;11825;51.898;8.202;2023-08-06T09:02:12;2.57;;;2.37;;
14939;SDS011;11825;51.898;8.202;2023-08-06T09:07:17;2.63;;;2.43;;
14939;SDS011;11825;51.898;8.202;2023-08-06T09:12:27;2.70;;;2.37;;
14939;SDS011;11825;51.898;8.202;2023-08-06T09:17:40;2.30;;;2.10;;
14939;SDS011;11825;51.898;8.202;2023-08-06T09:22:47;3.07;;;2.60;;
14939;SDS011;11825;51.898;8.202;2023-08-06T09:28:02;3.30;;;2.60;;
14939;SDS011;11825;51.898;8.202;2023-08-06T09:33:18;2.70;;;2.40;;
14939;SDS011;11825;51.898;8.202;2023-08-06T09:38:30;2.30;;;2.10;;
14939;SDS011;11825;51.898;8.202;2023-08-06T09:43:53;2.43;;;2.27;;
14939;SDS011;11825;51.898;8.202;2023-08-06T09:49:05;2.80;;;2.40;;
14939;SDS011;11825;51.898;8.202;2023-08-06T09:54:12;3.10;;;2.77;;
14939;SDS011;11825;51.898;8.202;2023-08-06T09:59:30;2.00;;;1.90;;
14939;SDS011;11825;51.898;8.202;2023-08-06T10:04:42;2.27;;;2.07;;
14939;SDS011;11825;51.898;8.202;2023-08-06T10:09:56;3.23;;;2.20;;
14939;SDS011;11825;51.898;8.202;2023-08-06T10:15:12;3.27;;;2.10;;
14939;SDS011;11825;51.898;8.202;2023-08-06T10:20:43;3.93;;;2.80;;
14939;SDS011;11825;51.898;8.202;2023-08-06T10:26:01;2.43;;;2.23;;
14939;SDS011;11825;51.898;8.202;2023-08-06T10:37:10;2.33;;;2.13;;
14939;SDS011;11825;51.898;8.202;2023-08-06T10:42:23;1.57;;;1.47;;
14939;SDS011;11825;51.898;8.202;2023-08-06T10:47:46;1.57;;;1.43;;
14939;SDS011;11825;51.898;8.202;2023-08-06T10:52:54;2.67;;;1.50;;
14939;SDS011;11825;51.898;8.202;2023-08-06T10:58:09;2.00;;;1.53;;
14939;SDS011;11825;51.898;8.202;2023-08-06T11:03:35;1.73;;;1.63;;
14939;SDS011;11825;51.898;8.202;2023-08-06T11:08:53;2.07;;;1.73;;
14939;SDS011;11825;51.898;8.202;2023-08-06T11:14:04;2.43;;;1.60;;
14939;SDS011;11825;51.898;8.202;2023-08-06T11:19:19;1.60;;;1.50;;
14939;SDS011;11825;51.898;8.202;2023-08-06T11:24:48;3.03;;;1.77;;
14939;SDS011;11825;51.898;8.202;2023-08-06T11:30:02;2.17;;;1.97;;
14939;SDS011;11825;51.898;8.202;2023-08-06T11:35:15;1.60;;;1.50;;
14939;SDS011;11825;51.898;8.202;2023-08-06T11:40:20;1.90;;;1.80;;
14939;SDS011;11825;51.898;8.202;2023-08-06T11:45:25;3.00;;;2.70;;
14939;SDS011;11825;51.898;8.202;2023-08-06T11:50:37;3.27;;;2.07;;
14939;SDS011;11825;51.898;8.202;2023-08-06T12:01:23;2.13;;;2.00;;
14939;SDS011;11825;51.898;8.202;2023-08-06T12:06:31;2.17;;;2.07;;
14939;SDS011;11825;51.898;8.202;2023-08-06T12:11:57;2.60;;;2.40;;
14939;SDS011;11825;51.898;8.202;2023-08-06T12:17:04;5.77;;;2.77;;
14939;SDS011;11825;51.898;8.202;2023-08-06T12:22:19;4.07;;;2.60;;
14939;SDS011;11825;51.898;8.202;2023-08-06T12:27:31;3.33;;;2.23;;
14939;SDS011;11825;51.898;8.202;2023-08-06T12:32:33;3.03;;;2.80;;
14939;SDS011;11825;51.898;8.202;2023-08-06T12:37:42;4.10;;;2.90;;
14939;SDS011;11825;51.898;8.202;2023-08-06T12:42:54;3.47;;;3.10;;
14939;SDS011;11825;51.898;8.202;2023-08-06T12:47:56;3.63;;;3.20;;
14939;SDS011;11825;51.898;8.202;2023-08-06T12:52:58;2.67;;;2.47;;
14939;SDS011;11825;51.898;8.202;2023-08-06T12:58:06;2.57;;;2.37;;
14939;SDS011;11825;51.898;8.202;2023-08-06T13:03:22;3.13;;;2.63;;
14939;SDS011;11825;51.898;8.202;2023-08-06T13:08:33;3.53;;;3.10;;
14939;SDS011;11825;51.898;8.202;2023-08-06T13:13:38;4.90;;;2.30;;
14939;SDS011;11825;51.898;8.202;2023-08-06T13:18:44;3.90;;;3.50;;
14939;SDS011;11825;51.898;8.202;2023-08-06T13:23:52;3.53;;;3.23;;
14939;SDS011;11825;51.898;8.202;2023-08-06T13:28:57;3.70;;;3.23;;
14939;SDS011;11825;51.898;8.202;2023-08-06T13:34:03;4.63;;;3.27;;
14939;SDS011;11825;51.898;8.202;2023-08-06T13:39:37;3.40;;;3.10;;
14939;SDS011;11825;51.898;8.202;2023-08-06T13:44:43;3.90;;;3.23;;
14939;SDS011;11825;51.898;8.202;2023-08-06T13:49:59;3.80;;;3.50;;
14939;SDS011;11825;51.898;8.202;2023-08-06T13:55:01;2.90;;;2.70;;
14939;SDS011;11825;51.898;8.202;2023-08-06T14:00:17;3.70;;;3.03;;
14939;SDS011;11825;51.898;8.202;2023-08-06T14:06:05;3.67;;;2.73;;
14939;SDS011;11825;51.898;8.202;2023-08-06T14:11:13;3.40;;;3.03;;
14939;SDS011;11825;51.898;8.202;2023-08-06T14:16:29;3.97;;;3.50;;
14939;SDS011;11825;51.898;8.202;2023-08-06T14:21:33;4.23;;;3.10;;
14939;SDS011;11825;51.898;8.202;2023-08-06T14:26:40;3.57;;;3.20;;
14939;SDS011;11825;51.898;8.202;2023-08-06T14:31:44;8.87;;;8.07;;
14939;SDS011;11825;51.898;8.202;2023-08-06T14:36:51;5.87;;;4.50;;
14939;SDS011;11825;51.898;8.202;2023-08-06T14:41:58;6.43;;;5.73;;
14939;SDS011;11825;51.898;8.202;2023-08-06T14:47:00;4.53;;;4.13;;
14939;SDS011;11825;51.898;8.202;2023-08-06T14:52:12;4.37;;;3.47;;
14939;SDS011;11825;51.898;8.202;2023-08-06T14:57:19;4.97;;;3.60;;
14939;SDS011;11825;51.898;8.202;2023-08-06T15:02:31;2.43;;;2.03;;
14939;SDS011;11825;51.898;8.202;2023-08-06T15:07:33;2.20;;;1.70;;
14939;SDS011;11825;51.898;8.202;2023-08-06T15:12:36;1.67;;;1.57;;
14939;SDS011;11825;51.898;8.202;2023-08-06T15:23:04;2.53;;;1.80;;
14939;SDS011;11825;51.898;8.202;2023-08-06T15:28:11;1.60;;;1.13;;
14939;SDS011;11825;51.898;8.202;2023-08-06T15:33:16;1.97;;;1.87;;
14939;SDS011;11825;51.898;8.202;2023-08-06T15:38:28;2.60;;;1.87;;
14939;SDS011;11825;51.898;8.202;2023-08-06T15:43:36;1.53;;;1.43;;
14939;SDS011;11825;51.898;8.202;2023-08-06T15:48:41;3.40;;;1.70;;
14939;SDS011;11825;51.898;8.202;2023-08-06T15:54:02;4.50;;;2.00;;
14939;SDS011;11825;51.898;8.202;2023-08-06T16:05:03;2.17;;;1.70;;
14939;SDS011;11825;51.898;8.202;2023-08-06T16:10:18;2.70;;;2.27;;
14939;SDS011;11825;51.898;8.202;2023-08-06T16:15:38;2.20;;;1.40;;
14939;SDS011;11825;51.898;8.202;2023-08-06T16:26:55;2.07;;;1.87;;
14939;SDS011;11825;51.898;8.202;2023-08-06T16:32:01;1.70;;;1.60;;
14939;SDS011;11825;51.898;8.202;2023-08-06T16:37:27;3.27;;;1.50;;
14939;SDS011;11825;51.898;8.202;2023-08-06T16:48:38;1.43;;;1.33;;
14939;SDS011;11825;51.898;8.202;2023-08-06T16:53:55;1.63;;;1.53;;
14939;SDS011;11825;51.898;8.202;2023-08-06T16:59:55;1.43;;;1.33;;
14939;SDS011;11825;51.898;8.202;2023-08-06T17:05:18;1.97;;;1.63;;
14939;SDS011;11825;51.898;8.202;2023-08-06T17:10:34;2.93;;;2.53;;
14939;SDS011;11825;51.898;8.202;2023-08-06T17:15:45;2.73;;;2.00;;
14939;SDS011;11825;51.898;8.202;2023-08-06T17:21:13;2.23;;;2.03;;
14939;SDS011;11825;51.898;8.202;2023-08-06T17:26:28;1.87;;;1.77;;
14939;SDS011;11825;51.898;8.202;2023-08-06T17:31:37;1.67;;;1.57;;
14939;SDS011;11825;51.898;8.202;2023-08-06T17:36:48;3.03;;;1.73;;
14939;SDS011;11825;51.898;8.202;2023-08-06T17:41:59;1.80;;;1.70;;
14939;SDS011;11825;51.898;8.202;2023-08-06T17:47:13;4.00;;;1.93;;
14939;SDS011;11825;51.898;8.202;2023-08-06T17:52:42;2.20;;;1.20;;
14939;SDS011;11825;51.898;8.202;2023-08-06T17:58:11;2.10;;;1.90;;
14939;SDS011;11825;51.898;8.202;2023-08-06T18:04:04;3.10;;;1.50;;
14939;SDS011;11825;51.898;8.202;2023-08-06T18:09:35;7.97;;;1.57;;
14939;SDS011;11825;51.898;8.202;2023-08-06T18:14:39;5.67;;;1.87;;
14939;SDS011;11825;51.898;8.202;2023-08-06T18:20:01;3.33;;;1.90;;
14939;SDS011;11825;51.898;8.202;2023-08-06T18:25:15;2.40;;;2.20;;
14939;SDS011;11825;51.898;8.202;2023-08-06T18:30:25;2.50;;;2.17;;
14939;SDS011;11825;51.898;8.202;2023-08-06T18:35:46;5.53;;;2.17;;
14939;SDS011;11825;51.898;8.202;2023-08-06T18:40:56;3.07;;;2.30;;
14939;SDS011;11825;51.898;8.202;2023-08-06T18:46:26;3.43;;;3.13;;
14939;SDS011;11825;51.898;8.202;2023-08-06T18:51:30;2.90;;;2.53;;
14939;SDS011;11825;51.898;8.202;2023-08-06T18:57:00;3.57;;;3.27;;
14939;SDS011;11825;51.898;8.202;2023-08-06T19:02:14;5.87;;;3.43;;
14939;SDS011;11825;51.898;8.202;2023-08-06T19:07:55;8.47;;;3.30;;
14939;SDS011;11825;51.898;8.202;2023-08-06T19:13:33;3.03;;;2.60;;
14939;SDS011;11825;51.898;8.202;2023-08-06T19:24:59;3.00;;;2.73;;
14939;SDS011;11825;51.898;8.202;2023-08-06T19:37:40;3.37;;;3.07;;
14939;SDS011;11825;51.898;8.202;2023-08-06T19:42:47;6.03;;;3.30;;
14939;SDS011;11825;51.898;8.202;2023-08-06T19:47:52;4.17;;;2.90;;
14939;SDS011;11825;51.898;8.202;2023-08-06T19:52:58;3.93;;;3.63;;
14939;SDS011;11825;51.898;8.202;2023-08-06T19:58:00;4.87;;;3.70;;
14939;SDS011;11825;51.898;8.202;2023-08-06T20:15:37;3.70;;;3.40;;
14939;SDS011;11825;51.898;8.202;2023-08-06T20:20:42;4.13;;;3.73;;
14939;SDS011;11825;51.898;8.202;2023-08-06T20:26:02;4.40;;;3.13;;
14939;SDS011;11825;51.898;8.202;2023-08-06T20:31:04;2.80;;;2.23;;
14939;SDS011;11825;51.898;8.202;2023-08-06T20:36:09;3.87;;;2.80;;
14939;SDS011;11825;51.898;8.202;2023-08-06T20:47:07;6.60;;;1.67;;
14939;SDS011;11825;51.898;8.202;2023-08-06T20:52:24;2.67;;;1.80;;
14939;SDS011;11825;51.898;8.202;2023-08-06T20:57:32;2.97;;;1.80;;
14939;SDS011;11825;51.898;8.202;2023-08-06T21:03:09;3.10;;;1.60;;
14939;SDS011;11825;51.898;8.202;2023-08-06T21:08:21;3.87;;;1.13;;
14939;SDS011;11825;51.898;8.202;2023-08-06T21:13:31;1.13;;;0.90;;
14939;SDS011;11825;51.898;8.202;2023-08-06T21:18:33;6.90;;;1.17;;
14939;SDS011;11825;51.898;8.202;2023-08-06T21:23:37;4.83;;;1.20;;
14939;SDS011;11825;51.898;8.202;2023-08-06T21:29:11;2.77;;;0.90;;
14939;SDS011;11825;51.898;8.202;2023-08-06T21:34:17;2.23;;;1.13;;
14939;SDS011;11825;51.898;8.202;2023-08-06T21:39:37;5.20;;;1.47;;
14939;SDS011;11825;51.898;8.202;2023-08-06T21:44:49;5.50;;;0.90;;
14939;SDS011;11825;51.898;8.202;2023-08-06T21:50:08;1.97;;;1.07;;
14939;SDS011;11825;51.898;8.202;2023-08-06T21:55:19;0.73;;;0.67;;
14939;SDS011;11825;51.898;8.202;2023-08-06T22:00:37;3.33;;;0.90;;
14939;SDS011;11825;51.898;8.202;2023-08-06T22:11:28;2.83;;;1.10;;
14939;SDS011;11825;51.898;8.202;2023-08-06T22:22:38;6.60;;;1.03;;
14939;SDS011;11825;51.898;8.202;2023-08-06T22:28:02;1.13;;;0.70;;
14939;SDS011;11825;51.898;8.202;2023-08-06T22:33:07;5.30;;;1.13;;
14939;SDS011;11825;51.898;8.202;2023-08-06T22:38:15;1.80;;;1.23;;
14939;SDS011;11825;51.898;8.202;2023-08-06T22:43:22;3.40;;;1.03;;
14939;SDS011;11825;51.898;8.202;2023-08-06T22:48:49;2.90;;;1.20;;
14939;SDS011;11825;51.898;8.202;2023-08-06T22:54:04;3.27;;;0.90;;
14939;SDS011;11825;51.898;8.202;2023-08-06T22:59:14;2.73;;;1.00;;
14939;SDS011;11825;51.898;8.202;2023-08-06T23:04:19;4.77;;;1.17;;
14939;SDS011;11825;51.898;8.202;2023-08-06T23:15:33;5.40;;;1.47;;
14939;SDS011;11825;51.898;8.202;2023-08-06T23:26:24;3.60;;;1.10;;
14939;SDS011;11825;51.898;8.202;2023-08-06T23:31:27;3.53;;;1.33;;
14939;SDS011;11825;51.898;8.202;2023-08-06T23:42:08;8.53;;;2.50;;
14939;SDS011;11825;51.898;8.202;2023-08-06T23:47:10;4.43;;;1.60;;
14939;SDS011;11825;51.898;8.202;2023-08-06T23:58:12;3.73;;;2.43;;
